Time;durP1;ratioP1;P1;durP2;ratioP2;P2;SDS_P1;SDS_P2;PMS_P1;PMS_P2;Temp;Humidity;BMP_temperature;BMP_pressure;BME280_temperature;BME280_humidity;BME280_pressure;Samples;Min_cycle;Max_cycle;Signal;HPM_P1;HPM_P2
2022/08/06 00:02:20;;;;;;;8.13;5.70;;;;;;;20.34;77.63;96754.13;5027423;28;20050;-58
2022/08/06 00:04:52;;;;;;;7.65;6.22;;;;;;;20.36;77.70;96754.47;5027473;28;20061;-59
2022/08/06 00:07:19;;;;;;;11.75;6.35;;;;;;;20.40;77.01;96755.16;5027481;28;20068;-61
2022/08/06 00:09:48;;;;;;;7.57;5.72;;;;;;;20.48;76.09;96756.56;5026032;28;20050;-65
2022/08/06 00:12:27;;;;;;;8.38;6.32;;;;;;;20.27;75.83;96734.59;5027424;28;20056;-58
2022/08/06 00:14:56;;;;;;;6.50;5.88;;;;;;;20.29;75.73;96718.09;5027431;28;20112;-65
2022/08/06 00:17:25;;;;;;;7.57;5.80;;;;;;;20.60;74.38;96755.84;5027191;28;20072;-58
2022/08/06 00:19:59;;;;;;;6.47;5.22;;;;;;;20.63;74.22;96752.13;5027585;28;20424;-65
2022/08/06 00:22:27;;;;;;;6.10;5.03;;;;;;;20.68;73.83;96748.78;5027164;28;20144;-65
2022/08/06 00:24:55;;;;;;;5.35;4.85;;;;;;;20.59;73.48;96734.56;5027419;28;20439;-59
2022/08/06 00:27:24;;;;;;;6.95;4.97;;;;;;;20.52;72.64;96700.97;5027013;28;20107;-66
2022/08/06 00:30:08;;;;;;;7.65;5.43;;;;;;;20.69;73.10;96761.63;5027400;28;20049;-61
2022/08/06 00:32:48;;;;;;;5.27;4.77;;;;;;;20.12;73.23;96677.88;5025946;28;20100;-66
2022/08/06 00:35:20;;;;;;;6.65;4.88;;;;;;;20.58;73.87;96761.13;5026733;28;20561;-66
2022/08/06 00:37:53;;;;;;;5.32;4.82;;;;;;;20.54;73.83;96749.97;5026689;28;20103;-66
2022/08/06 00:40:27;;;;;;;5.47;4.97;;;;;;;20.45;73.97;96749.00;5026872;28;20053;-66
2022/08/06 00:42:56;;;;;;;6.82;5.30;;;;;;;20.28;74.32;96724.94;5026729;28;20522;-61
2022/08/06 00:45:23;;;;;;;6.35;4.95;;;;;;;20.21;75.05;96727.94;5027237;28;20115;-66
2022/08/06 00:47:54;;;;;;;7.18;5.78;;;;;;;20.16;75.79;96746.13;5022758;28;20053;-60
2022/08/06 00:50:30;;;;;;;6.80;5.35;;;;;;;20.17;75.81;96741.31;5007134;28;20067;-60
2022/08/06 00:52:57;;;;;;;8.70;6.07;;;;;;;20.11;75.54;96741.00;5006753;28;20163;-59
2022/08/06 00:55:24;;;;;;;6.82;4.88;;;;;;;20.14;75.57;96730.94;5004608;28;20050;-60
2022/08/06 00:58:02;;;;;;;6.57;5.45;;;;;;;20.21;75.94;96747.63;5006681;28;20060;-65
2022/08/06 01:00:29;;;;;;;6.50;5.45;;;;;;;20.32;75.47;96753.78;5007098;28;20088;-66
2022/08/06 01:03:02;;;;;;;6.43;5.45;;;;;;;20.41;74.79;96760.34;5006881;28;20159;-59
2022/08/06 01:05:29;;;;;;;10.35;6.32;;;;;;;20.04;75.13;96709.47;5006816;28;20132;-64
2022/08/06 01:08:16;;;;;;;5.57;5.05;;;;;;;19.79;75.85;96698.06;5006517;28;20061;-65
2022/08/06 01:10:43;;;;;;;5.82;5.30;;;;;;;20.10;76.14;96747.06;5006782;28;20456;-58
2022/08/06 01:13:11;;;;;;;7.00;5.30;;;;;;;19.74;76.35;96692.94;5006400;28;20053;-65
2022/08/06 01:16:14;;;;;;;6.55;5.32;;;;;;;20.04;76.75;96754.47;5006534;28;20491;-59
2022/08/06 01:19:25;;;;;;;6.47;4.93;;;;;;;20.00;77.26;96742.50;5004666;28;20241;-59
2022/08/06 01:22:54;;;;;;;7.22;5.28;;;;;;;19.93;77.55;96749.09;5006280;28;20054;-65
2022/08/06 01:25:39;;;;;;;5.68;4.88;;;;;;;19.85;77.77;96746.91;5004840;28;20049;-59
2022/08/06 01:28:37;;;;;;;6.00;5.40;;;;;;;19.73;78.72;96747.59;5004791;28;20112;-65
2022/08/06 01:31:12;;;;;;;;;;;;;;;19.68;79.40;96742.50;5006664;28;20529;-59
2022/08/06 01:33:46;;;;;;;8.73;5.82;;;;;;;19.51;80.23;96745.28;5006048;28;19972;-59
2022/08/06 01:36:26;;;;;;;8.15;5.88;;;;;;;19.49;80.79;96744.91;5004705;28;20058;-58
2022/08/06 01:38:58;;;;;;;7.70;5.50;;;;;;;19.37;81.63;96723.13;5006164;28;20054;-65
2022/08/06 01:41:39;;;;;;;6.38;5.53;;;;;;;19.19;82.02;96683.34;5005906;28;20089;-64
2022/08/06 01:44:31;;;;;;;8.02;6.10;;;;;;;19.13;81.87;96662.63;5004426;28;20064;-59
2022/08/06 01:47:04;;;;;;;6.32;5.65;;;;;;;19.74;81.47;96740.72;5005333;28;20084;-59
2022/08/06 01:49:46;;;;;;;9.18;6.43;;;;;;;19.77;80.84;96745.47;5021344;28;20053;-66
2022/08/06 01:52:51;;;;;;;9.27;5.90;;;;;;;17.37;80.75;96362.75;5025520;28;20084;-59
2022/08/06 01:55:29;;;;;;;6.80;6.07;;;;;;;19.78;80.53;96733.00;5023802;28;20519;-59
2022/08/06 01:58:21;;;;;;;8.05;5.65;;;;;;;19.87;79.74;96721.94;5025401;28;20046;-65
2022/08/06 02:00:57;;;;;;;6.55;5.90;;;;;;;18.90;79.44;96592.59;5025061;28;20057;-65
2022/08/06 02:03:35;;;;;;;7.97;6.00;;;;;;;19.65;80.23;96734.94;5023940;28;20056;-59
2022/08/06 02:06:18;;;;;;;8.30;6.25;;;;;;;19.70;80.20;96734.38;5024579;28;20132;-65
2022/08/06 02:08:56;;;;;;;6.55;5.70;;;;;;;19.62;80.20;96733.00;5024967;28;20088;-58
2022/08/06 02:11:23;;;;;;;7.43;6.20;;;;;;;19.42;79.73;96688.91;5025462;28;20056;-59
2022/08/06 02:14:14;;;;;;;6.93;5.68;;;;;;;19.64;80.01;96730.53;5025178;28;20080;-62
2022/08/06 02:16:44;;;;;;;7.15;5.93;;;;;;;19.54;80.59;96727.53;5024997;28;20049;-65
2022/08/06 02:19:14;;;;;;;7.80;6.28;;;;;;;19.51;81.00;96724.78;5024946;28;20139;-65
2022/08/06 02:21:45;;;;;;;6.57;5.75;;;;;;;19.47;81.68;96715.66;5025036;28;20056;-65
2022/08/06 02:24:20;;;;;;;7.75;5.60;;;;;;;19.39;82.03;96714.25;5025180;28;20401;-58
2022/08/06 02:26:51;;;;;;;7.35;5.60;;;;;;;19.31;82.67;96710.81;5024785;28;20073;-60
2022/08/06 02:29:20;;;;;;;5.88;5.28;;;;;;;18.97;83.74;96682.25;5023725;28;20056;-65
2022/08/06 02:31:51;;;;;;;5.95;5.35;;;;;;;19.16;83.78;96723.53;5024755;28;20060;-59
2022/08/06 02:34:20;;;;;;;7.15;5.28;;;;;;;19.30;83.03;96728.09;5025021;28;20061;-65
2022/08/06 02:36:58;;;;;;;6.50;5.72;;;;;;;19.00;82.47;96669.38;5023171;28;20081;-66
2022/08/06 02:39:30;;;;;;;6.13;5.53;;;;;;;19.17;83.06;96701.88;5024891;28;20056;-66
2022/08/06 02:42:29;;;;;;;7.90;5.97;;;;;;;18.97;82.65;96671.00;5023647;28;20060;-66
2022/08/06 02:45:13;;;;;;;7.80;5.82;;;;;;;19.20;83.06;96693.38;5025158;28;20126;-60
2022/08/06 02:47:59;;;;;;;8.23;5.82;;;;;;;19.34;82.99;96712.75;5024455;28;20131;-61
2022/08/06 02:50:34;;;;;;;8.00;5.55;;;;;;;18.72;82.41;96620.25;4984315;28;20456;-65
2022/08/06 02:53:13;;;;;;;7.85;5.90;;;;;;;19.31;82.46;96696.78;4985672;28;20473;-65
2022/08/06 02:55:59;;;;;;;8.57;5.65;;;;;;;19.19;82.88;96686.16;4984033;28;20054;-59
2022/08/06 02:58:39;;;;;;;8.43;6.20;;;;;;;19.43;82.62;96715.75;4985234;28;20054;-62
2022/08/06 03:01:28;;;;;;;7.78;5.72;;;;;;;19.14;83.21;96681.06;4985582;28;20058;-65
2022/08/06 03:04:10;;;;;;;6.30;5.45;;;;;;;18.86;82.88;96619.94;4985684;28;20185;-58
2022/08/06 03:06:40;;;;;;;6.93;5.95;;;;;;;19.32;83.69;96715.19;4985425;28;20157;-65
2022/08/06 03:09:10;;;;;;;9.07;5.80;;;;;;;17.58;82.88;96420.38;4985273;28;20521;-58
2022/08/06 03:11:44;;;;;;;8.15;6.28;;;;;;;19.42;83.14;96704.94;4985176;28;20073;-66
2022/08/06 03:14:15;;;;;;;9.38;5.93;;;;;;;19.39;82.76;96709.41;4983661;28;20066;-59
2022/08/06 03:17:03;;;;;;;7.07;5.63;;;;;;;19.36;82.97;96704.66;4984872;28;20525;-65
2022/08/06 03:19:31;;;;;;;7.57;5.32;;;;;;;19.34;83.10;96729.59;4988449;28;20149;-66
2022/08/06 03:22:19;;;;;;;7.15;5.85;;;;;;;19.34;82.79;96701.53;4987884;28;20050;-65
2022/08/06 03:25:08;;;;;;;7.80;5.90;;;;;;;18.76;83.74;96645.44;4988756;28;20082;-61
2022/08/06 03:27:39;;;;;;;6.82;5.35;;;;;;;19.23;84.04;96712.16;4989168;28;20419;-59
2022/08/06 03:30:15;;;;;;;8.35;6.47;;;;;;;19.30;83.85;96706.41;4989200;28;20054;-60
2022/08/06 03:33:03;;;;;;;9.35;6.68;;;;;;;19.41;83.10;96711.81;5001664;28;20411;-66
2022/08/06 03:35:53;;;;;;;7.15;5.80;;;;;;;19.28;83.19;96696.84;5000994;28;20061;-59
2022/08/06 03:38:23;;;;;;;7.88;6.20;;;;;;;19.44;83.23;96711.69;4988932;28;20140;-65
2022/08/06 03:40:55;;;;;;;8.82;6.30;;;;;;;19.43;83.46;96715.75;5002928;28;20116;-65
2022/08/06 03:43:22;;;;;;;9.20;5.78;;;;;;;19.58;82.68;96722.59;4988498;28;20641;-61
2022/08/06 03:46:05;;;;;;;8.07;6.35;;;;;;;19.50;83.06;96721.22;4988410;28;20137;-66
2022/08/06 03:48:38;;;;;;;7.68;5.68;;;;;;;19.01;82.43;96638.06;5001922;28;20537;-59
2022/08/06 03:51:11;;;;;;;;;;;;;;;19.58;82.75;96717.00;5027965;28;20084;-62
2022/08/06 03:53:40;;;;;;;7.90;5.18;;;;;;;19.13;82.18;96651.41;5027675;28;20234;-59
2022/08/06 03:56:20;;;;;;;7.38;5.22;;;;;;;19.72;81.93;96720.69;5025928;28;20050;-65
2022/08/06 03:59:00;;;;;;;8.02;5.50;;;;;;;19.77;81.75;96718.16;5027296;28;20575;-58
2022/08/06 04:01:36;;;;;;;12.98;6.35;;;;;;;19.90;80.90;96715.44;5027171;28;20242;-66
2022/08/06 04:04:18;;;;;;;6.75;5.93;;;;;;;19.95;80.54;96720.56;5027211;28;20501;-64
2022/08/06 04:06:56;;;;;;;8.48;5.88;;;;;;;19.95;80.59;96718.50;5027502;28;20049;-65
2022/08/06 04:09:25;;;;;;;5.90;4.47;;;;;;;19.90;80.79;96718.25;5027608;28;20053;-65
2022/08/06 04:12:12;;;;;;;8.00;5.55;;;;;;;19.53;80.88;96669.75;5027068;28;20053;-65
2022/08/06 04:15:00;;;;;;;8.00;5.22;;;;;;;20.02;80.39;96728.78;5027258;28;20060;-59
2022/08/06 04:17:34;;;;;;;;;;;;;;;20.04;80.67;96726.34;5027528;28;20400;-59
2022/08/06 04:20:07;;;;;;;7.78;5.43;;;;;;;20.10;79.93;96716.13;5027150;28;19960;-64
2022/08/06 04:22:34;;;;;;;6.50;5.68;;;;;;;20.09;80.27;96723.00;5026854;28;20530;-65
2022/08/06 04:25:23;;;;;;;7.47;5.70;;;;;;;20.13;80.29;96726.50;5026806;28;20156;-58
2022/08/06 04:27:52;;;;;;;8.27;5.90;;;;;;;20.25;79.74;96731.47;5025148;28;20049;-66
2022/08/06 04:30:23;;;;;;;8.80;5.60;;;;;;;20.32;79.62;96731.25;5025954;28;20582;-58
2022/08/06 04:32:52;;;;;;;10.32;6.43;;;;;;;19.95;79.58;96695.25;5026523;28;20518;-58
2022/08/06 04:35:28;;;;;;;13.10;5.88;;;;;;;19.95;79.72;96681.19;5026844;28;20471;-59
2022/08/06 04:38:18;;;;;;;13.02;6.40;;;;;;;20.32;79.58;96731.25;5026848;28;20053;-64
2022/08/06 04:40:56;;;;;;;7.18;6.45;;;;;;;19.75;79.55;96624.25;5025620;28;20049;-66
2022/08/06 04:43:24;;;;;;;9.50;7.55;;;;;;;20.42;79.11;96713.31;5027086;28;20057;-60
2022/08/06 04:46:11;;;;;;;11.82;6.70;;;;;;;20.07;79.19;96655.16;5026294;28;20061;-59
2022/08/06 04:48:42;;;;;;;8.30;6.07;;;;;;;20.75;78.26;96731.72;5018809;28;20053;-65
2022/08/06 04:51:14;;;;;;;8.25;6.85;;;;;;;20.77;77.60;96735.66;5005477;28;20507;-64
2022/08/06 04:54:05;;;;;;;12.68;5.95;;;;;;;20.19;76.49;96620.69;5006755;28;20527;-59
2022/08/06 04:56:32;;;;;;;8.38;5.80;;;;;;;20.56;76.66;96684.78;5006931;28;20057;-59
2022/08/06 04:59:09;;;;;;;9.25;6.10;;;;;;;20.98;76.24;96731.47;5006539;28;20060;-61
2022/08/06 05:01:37;;;;;;;13.35;5.65;;;;;;;20.46;76.11;96646.47;5005822;28;20622;-65
2022/08/06 05:04:22;;;;;;;11.52;7.20;;;;;;;21.02;76.40;96738.56;5005251;28;20058;-59
2022/08/06 05:07:12;;;;;;;13.85;7.95;;;;;;;21.15;75.84;96741.41;5006058;28;20053;-60
2022/08/06 05:09:40;;;;;;;11.13;8.23;;;;;;;20.99;75.20;96685.19;5006772;28;20526;-65
2022/08/06 05:12:36;;;;;;;10.80;7.25;;;;;;;21.43;74.50;96732.16;5004472;28;20049;-66
2022/08/06 05:15:17;;;;;;;11.18;6.10;;;;;;;21.72;73.99;96738.47;5006118;28;20525;-62
2022/08/06 05:17:57;;;;;;;13.38;7.93;;;;;;;21.60;73.56;96694.16;5006133;28;20214;-62
2022/08/06 05:20:28;;;;;;;12.38;7.47;;;;;;;21.53;73.92;96680.28;5004913;28;20164;-63
2022/08/06 05:23:06;;;;;;;12.80;7.50;;;;;;;22.07;72.69;96731.72;5005818;28;20049;-64
2022/08/06 05:25:45;;;;;;;10.90;8.02;;;;;;;22.19;72.35;96732.94;5004658;28;20053;-60
2022/08/06 05:28:22;;;;;;;10.25;7.43;;;;;;;22.21;71.86;96725.59;5006147;28;20140;-65
2022/08/06 05:30:54;;;;;;;15.10;7.82;;;;;;;22.33;71.83;96727.63;5005914;28;20094;-60
2022/08/06 05:33:36;;;;;;;10.77;6.88;;;;;;;22.49;71.47;96730.25;5006056;28;20053;-61
2022/08/06 05:36:11;;;;;;;9.25;6.80;;;;;;;22.37;70.91;96691.59;5004763;28;20140;-66
2022/08/06 05:38:45;;;;;;;9.23;5.85;;;;;;;22.68;70.95;96725.63;5004571;28;20056;-61
2022/08/06 05:41:24;;;;;;;8.45;6.57;;;;;;;22.38;70.65;96662.09;5005744;28;20050;-62
2022/08/06 05:43:56;;;;;;;9.50;6.15;;;;;;;22.63;69.15;96688.69;5006023;28;20525;-61
2022/08/06 05:46:45;;;;;;;6.82;6.18;;;;;;;22.76;68.57;96669.66;5005658;28;20081;-59
2022/08/06 05:49:25;;;;;;;9.57;7.05;;;;;;;23.09;68.87;96704.75;5016944;28;20061;-61
2022/08/06 05:52:19;;;;;;;9.65;7.28;;;;;;;23.37;68.36;96732.75;5024707;28;20045;-61
2022/08/06 05:55:06;;;;;;;10.32;7.32;;;;;;;23.53;67.81;96714.78;5025263;28;20665;-61
2022/08/06 05:57:51;;;;;;;10.10;9.20;;;;;;;23.74;67.20;96722.44;5025200;28;20057;-64
2022/08/06 06:00:21;;;;;;;7.55;6.70;;;;;;;23.74;67.62;96728.09;5025221;28;20149;-58
2022/08/06 06:03:13;;;;;;;7.75;6.40;;;;;;;24.11;66.17;96712.03;5024826;28;20053;-61
2022/08/06 06:05:56;;;;;;;8.35;6.95;;;;;;;24.44;65.15;96713.84;5024870;28;20060;-58
2022/08/06 06:08:43;;;;;;;9.95;6.45;;;;;;;24.75;64.70;96716.59;5024991;28;20129;-68
2022/08/06 06:11:24;;;;;;;19.90;10.43;;;;;;;24.91;63.77;96702.88;5024803;28;20049;-59
2022/08/06 06:14:36;;;;;;;11.57;8.50;;;;;;;25.35;62.87;96713.91;5024640;28;20050;-59
2022/08/06 06:17:31;;;;;;;9.45;7.20;;;;;;;25.57;62.38;96715.25;5021335;28;20061;-65
2022/08/06 06:20:34;;;;;;;11.88;6.85;;;;;;;25.96;60.83;96713.38;5023246;28;20064;-59
2022/08/06 06:23:35;;;;;;;11.55;8.18;;;;;;;26.42;59.73;96709.06;5023980;28;20136;-63
2022/08/06 06:26:40;;;;;;;14.10;8.50;;;;;;;27.05;57.80;96705.75;5024669;28;20526;-64
2022/08/06 06:29:22;;;;;;;13.95;8.55;;;;;;;27.37;56.35;96713.41;5023515;28;20053;-63
2022/08/06 06:32:41;;;;;;;12.10;7.88;;;;;;;27.82;55.26;96715.72;5024130;28;20049;-64
2022/08/06 06:35:19;;;;;;;9.82;7.53;;;;;;;28.34;53.13;96710.38;5023987;28;20064;-64
2022/08/06 06:38:09;;;;;;;7.93;6.97;;;;;;;28.52;52.78;96704.41;5024540;28;20473;-64
2022/08/06 06:41:05;;;;;;;8.00;6.78;;;;;;;28.59;51.85;96698.31;5023028;28;20053;-61
2022/08/06 06:44:03;;;;;;;10.98;7.10;;;;;;;28.73;52.50;96703.94;5023914;28;20093;-64
2022/08/06 06:46:36;;;;;;;;;;;;;;;29.03;51.86;96693.16;5022905;28;20065;-60
2022/08/06 06:49:32;;;;;;;10.38;8.57;;;;;;;29.10;51.19;96682.09;5013349;28;20353;-62
2022/08/06 06:52:21;;;;;;;8.80;7.80;;;;;;;29.17;50.88;96680.88;5004476;28;20417;-63
2022/08/06 06:55:20;;;;;;;10.70;7.13;;;;;;;29.35;50.25;96680.56;5004882;28;20582;-63
2022/08/06 06:58:32;;;;;;;10.73;6.82;;;;;;;29.48;49.54;96680.97;5004368;28;20054;-63
2022/08/06 07:00:59;;;;;;;8.20;7.22;;;;;;;29.27;49.78;96680.25;5004597;28;20100;-63
2022/08/06 07:03:48;;;;;;;7.22;6.63;;;;;;;29.58;48.05;96679.47;5004663;28;20073;-63
2022/08/06 07:06:17;;;;;;;9.98;7.40;;;;;;;29.73;47.85;96659.41;5003137;28;20103;-64
2022/08/06 07:09:06;;;;;;;12.15;10.82;;;;;;;30.14;46.88;96672.97;5004684;28;20072;-65
2022/08/06 07:11:44;;;;;;;7.88;6.40;;;;;;;30.38;45.61;96670.53;5003924;28;20081;-60
2022/08/06 07:14:30;;;;;;;7.85;6.28;;;;;;;30.09;47.03;96642.28;5004444;28;20144;-64
2022/08/06 07:17:01;;;;;;;7.05;6.35;;;;;;;30.49;45.92;96664.13;5004386;28;20721;-62
2022/08/06 07:19:50;;;;;;;10.57;6.63;;;;;;;30.90;45.34;96663.28;5004836;28;20133;-65
2022/08/06 07:22:21;;;;;;;7.22;6.03;;;;;;;30.81;43.66;96640.63;5002955;28;20155;-64
2022/08/06 07:24:57;;;;;;;8.00;6.18;;;;;;;30.70;43.82;96626.25;5004495;28;20113;-63
2022/08/06 07:27:32;;;;;;;6.93;6.38;;;;;;;31.05;43.25;96642.28;5004025;28;20054;-60
2022/08/06 07:30:12;;;;;;;7.25;6.55;;;;;;;31.30;42.87;96635.56;5004010;28;20133;-60
2022/08/06 07:32:41;;;;;;;7.35;6.65;;;;;;;31.52;42.55;96642.09;5004095;28;20129;-63
2022/08/06 07:35:17;;;;;;;7.57;6.43;;;;;;;31.63;42.40;96647.06;5003739;28;20127;-63
2022/08/06 07:37:56;;;;;;;10.85;6.93;;;;;;;31.88;41.94;96646.06;5002823;28;20075;-61
2022/08/06 07:40:31;;;;;;;7.47;6.70;;;;;;;32.10;40.63;96640.31;5004466;28;20164;-61
2022/08/06 07:43:25;;;;;;;6.68;6.13;;;;;;;32.18;40.36;96641.34;5004144;28;20061;-60
2022/08/06 07:46:03;;;;;;;6.97;6.28;;;;;;;31.50;41.60;96626.75;5004062;28;20141;-62
2022/08/06 07:48:49;;;;;;;7.65;6.95;;;;;;;30.93;42.79;96636.50;5007462;28;20462;-61
2022/08/06 07:51:24;;;;;;;10.05;6.25;;;;;;;31.45;41.86;96641.84;5023482;28;20055;-59
2022/08/06 07:54:02;;;;;;;7.70;6.90;;;;;;;31.46;41.44;96637.69;5023778;28;20072;-65
2022/08/06 07:56:41;;;;;;;6.75;6.15;;;;;;;31.98;41.25;96638.75;5022437;28;20486;-65
2022/08/06 07:59:29;;;;;;;7.20;6.53;;;;;;;32.36;40.14;96635.03;5023474;28;20061;-62
2022/08/06 08:01:58;;;;;;;16.73;10.90;;;;;;;32.45;38.33;96629.06;5023688;28;20444;-62
2022/08/06 08:07:21;;;;;;;9.45;6.88;;;;;;;32.23;38.91;96626.97;5027265;28;20057;-61
2022/08/06 08:10:04;;;;;;;8.68;6.28;;;;;;;32.13;39.68;96636.38;5028016;28;20053;-65
2022/08/06 08:12:33;;;;;;;6.38;5.88;;;;;;;31.55;39.96;96634.56;5025804;28;20080;-60
2022/08/06 08:15:05;;;;;;;6.70;6.15;;;;;;;31.78;38.99;96613.19;5027464;28;20159;-60
2022/08/06 08:17:48;;;;;;;7.03;6.35;;;;;;;31.52;39.81;96641.34;5027222;28;20556;-63
2022/08/06 08:20:29;;;;;;;7.68;6.70;;;;;;;31.96;40.18;96641.38;5027822;28;20484;-60
2022/08/06 08:23:07;;;;;;;7.47;6.40;;;;;;;31.12;40.19;96601.69;5027296;28;20153;-64
2022/08/06 08:26:00;;;;;;;7.03;6.35;;;;;;;31.60;39.78;96608.03;5026891;28;20049;-64
2022/08/06 08:28:27;;;;;;;27.00;13.23;;;;;;;31.41;40.20;96641.34;5025669;28;20061;-65
2022/08/06 08:31:01;;;;;;;11.27;8.00;;;;;;;31.85;38.67;96609.84;5027199;28;20063;-60
2022/08/06 08:33:41;;;;;;;33.25;15.95;;;;;;;31.75;39.76;96626.50;5025610;28;20532;-65
2022/08/06 08:36:09;;;;;;;12.05;8.10;;;;;;;32.03;39.08;96623.63;5025437;28;20064;-60
2022/08/06 08:38:37;;;;;;;7.22;6.50;;;;;;;32.04;39.14;96671.06;5026811;28;20057;-66
2022/08/06 08:41:24;;;;;;;7.80;7.03;;;;;;;31.49;39.26;96590.84;5026800;28;20810;-63
2022/08/06 08:44:11;;;;;;;7.87;7.00;;;;;;;32.22;38.67;96631.16;5026847;28;20056;-61
2022/08/06 08:46:40;;;;;;;9.98;6.68;;;;;;;31.89;38.94;96630.41;5026400;28;20383;-63
2022/08/06 08:49:25;;;;;;;6.85;6.25;;;;;;;31.35;39.31;96598.34;5015510;28;20050;-64
2022/08/06 08:51:52;;;;;;;8.10;6.73;;;;;;;31.92;38.99;96629.38;5006635;28;20096;-62
2022/08/06 08:54:22;;;;;;;16.27;9.98;;;;;;;32.05;39.39;96632.50;5006617;28;20386;-62
2022/08/06 08:56:51;;;;;;;11.30;7.00;;;;;;;32.48;38.13;96619.38;5005236;28;20575;-61
2022/08/06 08:59:41;;;;;;;7.95;6.43;;;;;;;33.00;37.79;96625.19;5006474;28;20580;-61
2022/08/06 09:02:26;;;;;;;7.15;6.53;;;;;;;32.18;37.98;96586.88;5006826;28;20069;-63
2022/08/06 09:04:54;;;;;;;6.97;6.32;;;;;;;32.15;37.63;96596.50;5007003;28;20073;-63
2022/08/06 09:07:26;;;;;;;8.15;6.15;;;;;;;32.45;37.33;96629.06;5006462;28;20489;-63
2022/08/06 09:10:07;;;;;;;6.30;5.57;;;;;;;31.88;38.40;96606.72;2333926;28;10001966;-65
2022/08/06 09:12:37;;;;;;;6.80;6.10;;;;;;;32.32;37.46;96617.31;4982770;28;20488;-62
2022/08/06 09:15:14;;;;;;;8.18;6.57;;;;;;;31.96;38.54;96624.16;4987438;28;20074;-64
2022/08/06 09:17:45;;;;;;;8.15;6.55;;;;;;;32.70;37.58;96612.78;4986562;28;20058;-65
2022/08/06 09:20:34;;;;;;;6.18;5.57;;;;;;;32.48;37.30;96607.91;4987228;28;20619;-61
2022/08/06 09:23:01;;;;;;;7.32;6.63;;;;;;;32.43;36.81;96571.44;4987149;28;20081;-60
2022/08/06 09:25:37;;;;;;;6.65;6.05;;;;;;;32.43;37.30;96611.56;4985544;28;20108;-62
2022/08/06 09:28:31;;;;;;;6.80;5.38;;;;;;;32.03;37.86;96612.94;4987022;28;20057;-63
2022/08/06 09:31:12;;;;;;;10.02;5.80;;;;;;;32.09;37.93;96579.31;4985176;28;20149;-65
2022/08/06 09:34:03;;;;;;;5.88;5.38;;;;;;;32.59;37.20;96610.75;4986469;28;20057;-62
2022/08/06 09:36:50;;;;;;;5.20;4.70;;;;;;;31.88;37.35;96572.34;4986392;28;20062;-61
2022/08/06 09:39:41;;;;;;;5.70;5.25;;;;;;;32.35;37.43;96616.25;4984772;28;20050;-64
2022/08/06 09:42:40;;;;;;;6.00;5.23;;;;;;;31.81;36.92;96612.16;4986519;28;20141;-62
2022/08/06 09:45:10;;;;;;;7.15;6.40;;;;;;;31.97;37.47;96585.59;4986341;28;20507;-61
2022/08/06 09:47:44;;;;;;;6.20;5.47;;;;;;;32.42;37.17;96598.56;4985979;28;20062;-61
2022/08/06 09:50:42;;;;;;;7.25;5.07;;;;;;;33.03;36.21;96601.94;4986695;28;20120;-63
2022/08/06 09:53:11;;;;;;;6.55;6.05;;;;;;;32.60;36.18;96597.16;4986346;28;20145;-61
2022/08/06 09:55:41;;;;;;;7.00;5.80;;;;;;;32.84;35.82;96548.53;4986442;28;20065;-62
2022/08/06 09:58:08;;;;;;;5.60;5.10;;;;;;;32.44;36.08;96544.28;4986317;28;20050;-63
2022/08/06 10:00:38;;;;;;;7.28;5.72;;;;;;;33.22;36.00;96602.88;4986678;28;20116;-63
2022/08/06 10:03:08;;;;;;;5.65;5.18;;;;;;;33.28;35.73;96597.88;5000939;28;20359;-63
2022/08/06 10:06:07;;;;;;;6.15;5.65;;;;;;;33.53;36.18;96605.28;4986474;28;20057;-63
2022/08/06 10:08:41;;;;;;;5.90;5.50;;;;;;;33.37;36.10;96585.28;4985866;28;20152;-63
2022/08/06 10:11:07;;;;;;;8.52;5.60;;;;;;;33.72;35.46;96600.41;4986129;28;20142;-63
2022/08/06 10:13:35;;;;;;;5.55;5.00;;;;;;;33.84;35.08;96606.06;5000585;28;20439;-63
2022/08/06 10:16:26;;;;;;;5.45;4.95;;;;;;;33.65;35.88;96606.72;4985775;28;20444;-62
2022/08/06 10:18:55;;;;;;;5.13;4.72;;;;;;;33.20;35.68;96604.69;4984300;28;20054;-63
2022/08/06 10:21:33;;;;;;;5.95;5.47;;;;;;;33.23;35.80;96580.66;4985371;28;20046;-61
2022/08/06 10:24:09;;;;;;;6.00;5.40;;;;;;;33.47;35.57;96572.16;4985587;28;20046;-65
2022/08/06 10:26:36;;;;;;;5.95;5.32;;;;;;;33.71;34.51;96593.13;4985651;28;20142;-64
2022/08/06 10:29:06;;;;;;;5.50;5.00;;;;;;;33.69;34.60;96584.25;4985270;28;20052;-63
2022/08/06 10:31:35;;;;;;;5.75;5.30;;;;;;;34.04;34.47;96585.50;4984350;28;20468;-62
2022/08/06 10:34:10;;;;;;;6.22;5.63;;;;;;;34.10;34.59;96584.16;5000452;28;20054;-62
2022/08/06 10:36:45;;;;;;;5.38;4.88;;;;;;;33.86;34.41;96574.69;4985337;28;20058;-62
2022/08/06 10:39:15;;;;;;;5.68;5.28;;;;;;;33.96;33.95;96578.78;4985460;28;20054;-62
2022/08/06 10:42:04;;;;;;;5.68;5.18;;;;;;;33.69;34.36;96569.88;4985148;28;20050;-63
2022/08/06 10:44:48;;;;;;;8.80;5.97;;;;;;;34.31;33.42;96573.72;4985376;28;20480;-61
2022/08/06 10:47:17;;;;;;;7.00;6.30;;;;;;;34.05;33.86;96575.59;4985249;28;20929;-61
2022/08/06 10:50:06;;;;;;;7.57;5.70;;;;;;;34.02;33.78;96574.56;4985566;28;20061;-62
2022/08/06 10:52:54;;;;;;;8.27;5.97;;;;;;;33.37;33.69;96540.09;4985353;28;20142;-62
2022/08/06 10:55:22;;;;;;;6.03;5.47;;;;;;;33.33;34.96;96573.28;4984000;28;20904;-62
2022/08/06 10:57:49;;;;;;;6.53;5.95;;;;;;;34.04;34.37;96556.75;4985577;28;20061;-62
2022/08/06 11:00:17;;;;;;;6.85;6.25;;;;;;;33.96;33.81;96562.34;4985368;28;20568;-61
2022/08/06 11:03:09;;;;;;;11.02;6.07;;;;;;;33.55;33.58;96556.69;4983800;28;20073;-62
2022/08/06 11:05:40;;;;;;;6.70;6.07;;;;;;;32.97;35.26;96563.88;4985000;28;20061;-61
2022/08/06 11:08:22;;;;;;;5.75;5.25;;;;;;;32.88;34.45;96543.28;4985199;28;20050;-61
2022/08/06 11:11:22;;;;;;;6.30;5.75;;;;;;;33.74;33.60;96551.03;4984063;28;20148;-64
2022/08/06 11:14:11;;;;;;;6.72;6.07;;;;;;;34.21;33.26;96543.00;4985294;28;20054;-62
2022/08/06 11:16:55;;;;;;;8.25;6.35;;;;;;;34.30;32.58;96539.75;4984203;28;20074;-62
2022/08/06 11:19:44;;;;;;;6.10;5.57;;;;;;;33.34;34.08;96546.91;4985374;28;20058;-62
2022/08/06 11:22:32;;;;;;;10.20;5.60;;;;;;;32.77;35.31;96544.13;4985133;28;20050;-62
2022/08/06 11:25:00;;;;;;;6.97;6.38;;;;;;;32.05;36.63;96546.50;4985028;28;20062;-61
2022/08/06 11:27:51;;;;;;;7.50;6.10;;;;;;;31.89;36.73;96550.97;4983954;28;20528;-64
2022/08/06 11:30:20;;;;;;;8.40;6.43;;;;;;;31.61;36.91;96495.78;4983535;28;20058;-63
2022/08/06 11:32:52;;;;;;;6.80;6.05;;;;;;;32.55;35.49;96509.81;4985099;28;20522;-62
2022/08/06 11:35:34;;;;;;;8.80;6.35;;;;;;;33.81;34.96;96546.78;4985195;28;20056;-64
2022/08/06 11:38:44;;;;;;;10.15;6.75;;;;;;;33.63;32.95;96539.63;4983827;28;20471;-61
2022/08/06 11:41:24;;;;;;;7.60;5.18;;;;;;;33.64;34.01;96547.72;4986418;28;20060;-61
2022/08/06 11:44:15;;;;;;;9.80;5.88;;;;;;;33.46;34.73;96510.28;4988913;28;20054;-61
2022/08/06 11:46:45;;;;;;;6.18;5.57;;;;;;;33.74;33.85;96545.28;4988216;28;20591;-61
2022/08/06 11:49:18;;;;;;;5.55;5.07;;;;;;;33.65;34.09;96543.50;4997659;28;20054;-64
2022/08/06 11:51:53;;;;;;;6.07;5.55;;;;;;;33.91;34.23;96536.53;5006242;28;20148;-61
2022/08/06 11:54:57;;;;;;;7.38;5.35;;;;;;;34.16;34.20;96535.22;5008037;28;20054;-64
2022/08/06 11:57:24;;;;;;;6.57;6.07;;;;;;;34.20;32.89;96524.94;5007537;28;20077;-64
2022/08/06 12:00:14;;;;;;;6.10;5.60;;;;;;;34.11;33.61;96524.53;5008360;28;20549;-64
2022/08/06 12:02:41;;;;;;;5.88;5.38;;;;;;;34.31;33.69;96518.28;5007908;28;20046;-63
2022/08/06 12:05:13;;;;;;;6.25;5.75;;;;;;;34.10;33.42;96520.13;5007688;28;20062;-62
2022/08/06 12:07:45;;;;;;;6.45;5.85;;;;;;;32.95;35.61;96497.59;5007807;28;20062;-64
2022/08/06 12:10:18;;;;;;;6.88;6.15;;;;;;;32.76;35.75;96496.66;5007994;28;20054;-64
2022/08/06 12:12:55;;;;;;;6.30;5.80;;;;;;;32.92;36.01;96520.84;5007889;28;20061;-62
2022/08/06 12:15:26;;;;;;;6.78;5.85;;;;;;;33.09;36.03;96525.16;5007830;28;20054;-61
2022/08/06 12:18:13;;;;;;;6.15;5.65;;;;;;;33.99;35.12;96520.25;5006310;28;20107;-62
2022/08/06 12:20:55;;;;;;;5.80;5.33;;;;;;;33.82;33.85;96468.63;5007562;28;20057;-65
2022/08/06 12:23:23;;;;;;;5.90;5.18;;;;;;;34.13;34.29;96530.53;5007549;28;20053;-63
2022/08/06 12:26:11;;;;;;;11.35;5.88;;;;;;;34.21;33.95;96522.88;5006305;28;20054;-62
2022/08/06 12:28:38;;;;;;;8.23;6.22;;;;;;;34.14;34.15;96523.47;5007407;28;20049;-60
2022/08/06 12:31:05;;;;;;;7.03;5.63;;;;;;;33.68;34.58;96496.50;5007767;28;20124;-60